Time;durP1;ratioP1;P1;durP2;ratioP2;P2;SDS_P1;SDS_P2;PMS_P1;PMS_P2;Temp;Humidity;BMP_temperature;BMP_pressure;BME280_temperature;BME280_humidity;BME280_pressure;Samples;Min_cycle;Max_cycle;Signal;HPM_P1;HPM_P2
2021/01/27 00:00:27;;;;;;;0.17;0.17;;;3.70;99.90;;;;;;5067931;28;20333;-85
2021/01/27 00:02:53;;;;;;;0.10;0.10;;;4.00;99.90;;;;;;5049517;28;20090;-85
2021/01/27 00:05:26;;;;;;;0.10;0.10;;;4.00;99.90;;;;;;5067988;28;20115;-85
2021/01/27 00:07:52;;;;;;;0.55;0.55;;;4.00;99.90;;;;;;5050054;28;20036;-85
2021/01/27 00:10:18;;;;;;;0.10;0.10;;;4.00;99.90;;;;;;5048336;28;20432;-85
2021/01/27 00:12:45;;;;;;;0.10;0.10;;;3.90;99.90;;;;;;5077266;28;20074;-85
2021/01/27 00:15:23;;;;;;;0.10;0.10;;;3.80;99.90;;;;;;5050893;28;20497;-85
2021/01/27 00:17:50;;;;;;;0.10;0.10;;;3.80;99.90;;;;;;5055149;28;20017;-85
2021/01/27 00:20:19;;;;;;;0.55;0.55;;;3.60;99.90;;;;;;5067289;28;20102;-85
2021/01/27 00:22:44;;;;;;;0.10;0.10;;;3.40;99.90;;;;;;5068871;28;20056;-85
2021/01/27 00:25:11;;;;;;;0.10;0.10;;;3.40;99.90;;;;;;5067864;28;20060;-85
2021/01/27 00:27:37;;;;;;;;;;;3.30;99.90;;;;;;5050143;28;20033;-85
2021/01/27 00:30:14;;;;;;;0.50;0.50;;;3.30;99.90;;;;;;5067203;28;19908;-85
2021/01/27 00:32:40;;;;;;;;;;;3.20;99.90;;;;;;5050392;28;20025;-85
2021/01/27 00:35:07;;;;;;;0.30;0.30;;;3.10;99.90;;;;;;5067227;28;19908;-85
2021/01/27 00:37:33;;;;;;;0.10;0.10;;;3.10;99.90;;;;;;5071636;28;20591;-85
2021/01/27 00:39:59;;;;;;;0.30;0.30;;;3.20;99.90;;;;;;5067115;28;20060;-85
2021/01/27 00:42:26;;;;;;;0.20;0.20;;;3.20;99.90;;;;;;5067188;28;20071;-85
2021/01/27 00:44:53;;;;;;;1.00;0.90;;;3.30;99.90;;;;;;5066533;28;20024;-85
2021/01/27 00:47:20;;;;;;;0.30;0.30;;;3.40;99.90;;;;;;5046926;28;20128;-86
2021/01/27 00:49:46;;;;;;;0.10;0.10;;;3.60;99.90;;;;;;5048861;28;20024;-86
2021/01/27 00:52:12;;;;;;;0.85;0.63;;;3.60;99.90;;;;;;5066549;28;20032;-85
2021/01/27 00:54:38;;;;;;;0.10;0.10;;;3.70;99.90;;;;;;5050534;28;20060;-85
2021/01/27 00:57:04;;;;;;;0.05;0.05;;;3.60;99.90;;;;;;5071233;28;20029;-85
2021/01/27 00:59:30;;;;;;;0.10;0.10;;;3.50;99.90;;;;;;5071031;28;20066;-85
2021/01/27 01:01:56;;;;;;;0.30;0.30;;;3.50;99.90;;;;;;5072445;28;20025;-85
2021/01/27 01:04:22;;;;;;;0.10;0.10;;;3.80;99.90;;;;;;5063705;28;20380;-85
2021/01/27 01:06:48;;;;;;;0.08;0.08;;;3.90;99.90;;;;;;5070653;28;20036;-84
2021/01/27 01:09:14;;;;;;;0.10;0.10;;;4.00;99.90;;;;;;5070924;28;20104;-84
2021/01/27 01:11:39;;;;;;;0.10;0.10;;;4.10;99.90;;;;;;5070394;28;20036;-84
2021/01/27 01:14:10;;;;;;;0.20;0.20;;;3.90;99.90;;;;;;5052357;28;20028;-84
2021/01/27 01:16:38;;;;;;;1.65;0.65;;;4.00;99.90;;;;;;5070659;28;20021;-84
2021/01/27 01:19:10;;;;;;;0.30;0.30;;;4.00;99.90;;;;;;5070491;28;20112;-85
2021/01/27 01:21:36;;;;;;;0.10;0.10;;;3.90;99.90;;;;;;5070771;28;20509;-85
2021/01/27 01:24:02;;;;;;;0.32;0.32;;;3.90;99.90;;;;;;5051726;28;20033;-84
2021/01/27 01:26:28;;;;;;;0.10;0.10;;;3.80;99.90;;;;;;5070483;28;20056;-85
2021/01/27 01:28:54;;;;;;;0.20;0.20;;;3.90;99.90;;;;;;5052086;28;20071;-85
2021/01/27 01:31:19;;;;;;;0.28;0.28;;;3.80;99.90;;;;;;5070359;28;20068;-85
2021/01/27 01:33:45;;;;;;;0.25;0.25;;;3.80;99.90;;;;;;5052611;28;20082;-84
2021/01/27 01:36:11;;;;;;;0.38;0.38;;;3.90;99.90;;;;;;5077118;28;20025;-85
2021/01/27 01:38:38;;;;;;;0.10;0.10;;;3.90;99.90;;;;;;5063443;28;20041;-85
2021/01/27 01:41:04;;;;;;;0.57;0.57;;;4.00;99.90;;;;;;5052452;28;20119;-86
2021/01/27 01:43:39;;;;;;;0.80;0.80;;;4.00;99.90;;;;;;5069292;28;20036;-86
2021/01/27 01:46:20;;;;;;;0.10;0.10;;;4.00;99.90;;;;;;5069682;28;20044;-87
2021/01/27 01:49:01;;;;;;;0.15;0.15;;;4.00;99.90;;;;;;5060840;28;20058;-87
2021/01/27 01:51:32;;;;;;;0.10;0.10;;;3.90;99.90;;;;;;5065800;28;20531;-86
2021/01/27 01:54:11;;;;;;;0.10;0.10;;;3.90;99.90;;;;;;5069409;28;20123;-87
2021/01/27 01:56:40;;;;;;;0.30;0.30;;;3.90;99.90;;;;;;5061175;28;20162;-87
2021/01/27 01:59:10;;;;;;;0.10;0.10;;;3.80;99.90;;;;;;5069544;28;20064;-86
2021/01/27 02:01:37;;;;;;;0.10;0.10;;;3.70;99.90;;;;;;5077697;28;20027;-86
2021/01/27 02:04:04;;;;;;;0.10;0.10;;;3.30;99.90;;;;;;5069147;28;20024;-86
2021/01/27 02:06:31;;;;;;;0.15;0.15;;;3.40;99.90;;;;;;5061637;28;20029;-86
2021/01/27 02:08:58;;;;;;;0.20;0.20;;;3.50;99.90;;;;;;5073391;28;20124;-86
2021/01/27 02:11:49;;;;;;;0.00;0.00;;;3.60;99.90;;;;;;5070309;28;20033;-86
2021/01/27 02:14:28;;;;;;;0.10;0.10;;;3.80;99.90;;;;;;5050061;28;20037;-85
2021/01/27 02:17:02;;;;;;;0.10;0.10;;;3.90;99.90;;;;;;5069130;28;20378;-86
2021/01/27 02:19:57;;;;;;;0.10;0.10;;;4.10;99.90;;;;;;5068212;28;20540;-86
2021/01/27 02:22:34;;;;;;;0.10;0.10;;;4.40;99.90;;;;;;5061058;28;20028;-86
2021/01/27 02:25:27;;;;;;;0.43;0.43;;;4.50;99.90;;;;;;5065139;28;20040;-87
2021/01/27 02:27:56;;;;;;;0.10;0.10;;;3.60;99.90;;;;;;5052925;28;20040;-87
2021/01/27 02:30:39;;;;;;;0.10;0.10;;;3.40;99.90;;;;;;5069616;28;20020;-87
2021/01/27 02:33:43;;;;;;;0.13;0.13;;;3.30;99.90;;;;;;5067943;28;20051;-87
2021/01/27 02:36:50;;;;;;;0.00;0.00;;;3.20;99.90;;;;;;5050895;28;20055;-88
2021/01/27 02:39:29;;;;;;;0.25;0.20;;;3.10;99.90;;;;;;5067741;28;20032;-87
2021/01/27 02:42:04;;;;;;;0.38;0.38;;;3.30;99.90;;;;;;5069179;28;20444;-87
2021/01/27 02:44:43;;;;;;;0.47;0.38;;;3.20;99.90;;;;;;5050825;28;20024;-87
2021/01/27 02:47:19;;;;;;;0.10;0.10;;;3.20;99.90;;;;;;5069610;28;20826;-88
2021/01/27 02:50:04;;;;;;;0.03;0.03;;;3.20;99.90;;;;;;5069460;28;20029;-88
2021/01/27 02:52:45;;;;;;;0.10;0.10;;;3.20;99.90;;;;;;5061299;28;20029;-87
2021/01/27 02:55:17;;;;;;;0.00;0.00;;;3.10;99.90;;;;;;5050438;28;20107;-87
2021/01/27 02:58:02;;;;;;;0.57;0.57;;;3.10;99.90;;;;;;5068995;28;20035;-88
2021/01/27 03:00:35;;;;;;;0.20;0.20;;;3.10;99.90;;;;;;5068094;28;20257;-87
2021/01/27 03:03:06;;;;;;;0.13;0.13;;;3.10;99.90;;;;;;5069088;28;20024;-88
2021/01/27 03:05:39;;;;;;;0.10;0.10;;;3.20;1.00;;;;;;5068479;28;20032;-88
2021/01/27 03:08:23;;;;;;;0.32;0.32;;;3.20;99.90;;;;;;5051225;28;20111;-88
2021/01/27 03:11:01;;;;;;;0.20;0.20;;;3.20;99.90;;;;;;5069198;28;20576;-88
2021/01/27 03:13:35;;;;;;;0.28;0.28;;;3.10;99.90;;;;;;5049760;28;20085;-86
2021/01/27 03:16:09;;;;;;;0.55;0.55;;;3.40;99.90;;;;;;5068944;28;20104;-88
2021/01/27 03:18:42;;;;;;;0.43;0.43;;;3.30;99.90;;;;;;5068359;28;20044;-88
2021/01/27 03:21:22;;;;;;;0.05;0.05;;;3.20;99.90;;;;;;5051036;28;20048;-87
2021/01/27 03:23:55;;;;;;;0.05;0.05;;;3.10;99.90;;;;;;5071663;28;20091;-87
2021/01/27 03:26:25;;;;;;;0.98;0.45;;;3.00;99.90;;;;;;5070171;28;20017;-86
2021/01/27 03:28:59;;;;;;;0.10;0.10;;;2.80;99.90;;;;;;5068731;28;20028;-87
2021/01/27 03:31:25;;;;;;;0.98;0.85;;;2.80;99.90;;;;;;5067378;28;20073;-86
2021/01/27 03:34:01;;;;;;;0.38;0.30;;;2.80;99.90;;;;;;5074377;28;20027;-87
2021/01/27 03:36:34;;;;;;;0.30;0.30;;;2.70;99.90;;;;;;5068006;28;20562;-87
2021/01/27 03:39:01;;;;;;;0.98;0.40;;;2.70;99.90;;;;;;5066194;28;20343;-87
2021/01/27 03:41:59;;;;;;;0.10;0.10;;;2.70;99.90;;;;;;5067995;28;20063;-87
2021/01/27 03:44:34;;;;;;;0.10;0.10;;;2.60;99.90;;;;;;5068645;28;20033;-87
2021/01/27 03:47:07;;;;;;;0.10;0.10;;;2.70;99.90;;;;;;5063773;28;20028;-87
2021/01/27 03:49:38;;;;;;;0.10;0.10;;;2.60;99.90;;;;;;5062225;28;20032;-87
2021/01/27 03:52:34;;;;;;;0.75;0.75;;;2.50;99.90;;;;;;5060569;28;20044;-87
2021/01/27 03:55:10;;;;;;;0.10;0.10;;;2.50;99.90;;;;;;5068279;28;20021;-87
2021/01/27 03:57:42;;;;;;;0.10;0.10;;;2.50;99.90;;;;;;5049040;28;20826;-87
2021/01/27 04:00:09;;;;;;;0.10;0.10;;;2.50;99.90;;;;;;5068587;28;20090;-87
2021/01/27 04:02:35;;;;;;;0.10;0.10;;;2.50;99.90;;;;;;5049845;28;20502;-87
2021/01/27 04:05:01;;;;;;;0.25;0.25;;;2.50;99.90;;;;;;5067966;28;20067;-87
2021/01/27 04:07:27;;;;;;;0.10;0.10;;;2.50;99.90;;;;;;5069822;28;20515;-87
2021/01/27 04:09:53;;;;;;;0.28;0.28;;;2.50;99.90;;;;;;5068244;28;20028;-87
2021/01/27 04:12:21;;;;;;;0.30;0.30;;;2.60;99.90;;;;;;5067763;28;20024;-87
2021/01/27 04:14:48;;;;;;;0.20;0.20;;;2.70;99.90;;;;;;5067648;28;20028;-86
2021/01/27 04:17:24;;;;;;;0.10;0.10;;;2.70;99.90;;;;;;5067495;28;20028;-87
2021/01/27 04:19:51;;;;;;;0.10;0.10;;;2.60;99.90;;;;;;5042935;28;20045;-86
2021/01/27 04:22:17;;;;;;;0.52;0.52;;;2.60;99.90;;;;;;5047920;28;20025;-87
2021/01/27 04:24:44;;;;;;;0.10;0.10;;;2.60;99.90;;;;;;5047459;28;20028;-85
2021/01/27 04:27:11;;;;;;;0.50;0.50;;;2.60;99.90;;;;;;5046045;28;20032;-87
2021/01/27 04:29:36;;;;;;;0.00;0.00;;;2.60;99.90;;;;;;5048434;28;20047;-87
2021/01/27 04:32:02;;;;;;;0.30;0.30;;;2.70;99.90;;;;;;5051438;28;20025;-87
2021/01/27 04:34:28;;;;;;;0.57;0.57;;;2.70;99.90;;;;;;5057990;28;20111;-86
2021/01/27 04:36:54;;;;;;;0.10;0.10;;;2.70;99.90;;;;;;5064383;28;20471;-86
2021/01/27 04:39:20;;;;;;;0.13;0.13;;;2.70;99.90;;;;;;5052425;28;20100;-86
2021/01/27 04:41:46;;;;;;;0.20;0.20;;;2.80;99.90;;;;;;5051489;28;20631;-86
2021/01/27 04:44:13;;;;;;;1.75;0.35;;;2.70;99.90;;;;;;5056820;28;20032;-86
2021/01/27 04:46:59;;;;;;;0.20;0.20;;;2.70;99.90;;;;;;5051673;28;20075;-86
2021/01/27 04:49:35;;;;;;;0.20;0.20;;;2.70;99.90;;;;;;5050200;28;20032;-86
2021/01/27 04:52:13;;;;;;;0.20;0.20;;;2.60;99.90;;;;;;5051549;28;20029;-87
2021/01/27 04:55:06;;;;;;;0.10;0.10;;;2.60;99.90;;;;;;5051752;28;20059;-87
2021/01/27 04:58:05;;;;;;;0.10;0.10;;;2.60;99.90;;;;;;5049795;28;20021;-86
2021/01/27 05:00:46;;;;;;;0.10;0.10;;;2.70;99.90;;;;;;5050895;28;20059;-86
2021/01/27 05:03:53;;;;;;;0.10;0.10;;;2.70;99.90;;;;;;5049867;28;20036;-86
2021/01/27 05:06:26;;;;;;;0.17;0.17;;;2.70;99.90;;;;;;5041343;28;20041;-86
2021/01/27 05:09:22;;;;;;;0.40;0.40;;;2.60;99.90;;;;;;5051238;28;20108;-86
2021/01/27 05:11:51;;;;;;;0.50;0.50;;;2.60;99.90;;;;;;5041211;28;20064;-86
2021/01/27 05:14:23;;;;;;;0.20;0.20;;;2.70;99.90;;;;;;5049533;28;20028;-86
2021/01/27 05:16:57;;;;;;;0.20;0.20;;;2.60;99.90;;;;;;5050724;28;20036;-86
2021/01/27 05:19:26;;;;;;;0.38;0.38;;;2.60;99.90;;;;;;5058037;28;20052;-86
2021/01/27 05:21:58;;;;;;;0.20;0.20;;;2.60;99.90;;;;;;5071161;28;20044;-86
2021/01/27 05:24:26;;;;;;;0.10;0.10;;;2.70;99.90;;;;;;5068560;28;20040;-86
2021/01/27 05:26:59;;;;;;;0.10;0.10;;;2.70;99.90;;;;;;5069394;28;20013;-86
2021/01/27 05:29:41;;;;;;;0.20;0.20;;;2.60;99.90;;;;;;5070689;28;20050;-86
2021/01/27 05:32:21;;;;;;;0.10;0.10;;;2.70;99.90;;;;;;5070309;28;20085;-86
2021/01/27 05:34:50;;;;;;;0.17;0.17;;;2.90;99.90;;;;;;5067517;28;20541;-86
2021/01/27 05:37:20;;;;;;;0.10;0.10;;;2.90;99.90;;;;;;5043337;28;20028;-87
2021/01/27 05:39:48;;;;;;;0.08;0.08;;;3.00;99.90;;;;;;5067210;28;20096;-89
2021/01/27 05:42:28;;;;;;;0.30;0.30;;;3.10;99.90;;;;;;5061683;28;20028;-87
2021/01/27 05:45:18;;;;;;;0.52;0.52;;;3.10;99.90;;;;;;5063780;28;20116;-90
2021/01/27 05:47:45;;;;;;;0.10;0.10;;;3.00;99.90;;;;;;5070306;28;20097;-89
2021/01/27 05:50:42;;;;;;;0.52;0.52;;;2.70;99.90;;;;;;5069129;28;20389;-87
2021/01/27 05:53:14;;;;;;;;;;;2.70;99.90;;;;;;5036169;28;20907;-87
2021/01/27 05:56:05;;;;;;;0.10;0.10;;;2.60;99.90;;;;;;5066641;28;19931;-86
2021/01/27 05:58:45;;;;;;;1.00;0.95;;;2.60;99.90;;;;;;5065017;28;20150;-87
2021/01/27 06:01:37;;;;;;;0.10;0.10;;;2.70;1.00;;;;;;5043706;28;20028;-87
2021/01/27 06:04:20;;;;;;;0.50;0.50;;;2.90;26.10;;;;;;5044282;28;20094;-85
2021/01/27 06:06:46;;;;;;;0.10;0.10;;;3.00;1.00;;;;;;5062190;28;20409;-86
2021/01/27 06:09:12;;;;;;;0.10;0.10;;;3.00;1.00;;;;;;5070161;28;20029;-85
2021/01/27 06:11:39;;;;;;;0.10;0.10;;;3.00;1.00;;;;;;5052524;28;20107;-86
2021/01/27 06:14:18;;;;;;;0.10;0.10;;;2.90;1.00;;;;;;5070112;28;20102;-88
2021/01/27 06:16:49;;;;;;;0.10;0.10;;;2.80;15.50;;;;;;5076965;28;20024;-88
2021/01/27 06:19:19;;;;;;;0.20;0.20;;;2.70;20.30;;;;;;5059841;28;20135;-88
2021/01/27 06:21:53;;;;;;;0.50;0.47;;;2.80;39.80;;;;;;5049077;28;20021;-87
2021/01/27 06:24:46;;;;;;;0.55;0.55;;;2.80;95.00;;;;;;5049773;28;20021;-87
2021/01/27 06:27:36;;;;;;;0.13;0.13;;;2.80;97.50;;;;;;5049927;28;20032;-88
2021/01/27 06:30:08;;;;;;;0.30;0.30;;;2.80;99.90;;;;;;5044718;28;20036;-87
2021/01/27 06:32:45;;;;;;;0.30;0.30;;;2.80;99.90;;;;;;5058509;28;20489;-88
2021/01/27 06:35:23;;;;;;;1.88;0.77;;;2.90;99.90;;;;;;5036105;28;20391;-88
2021/01/27 06:38:00;;;;;;;0.57;0.57;;;2.90;99.90;;;;;;5049697;28;20025;-87
2021/01/27 06:40:44;;;;;;;0.10;0.10;;;2.80;99.90;;;;;;5046771;28;20509;-88
2021/01/27 06:43:32;;;;;;;0.10;0.10;;;2.90;99.90;;;;;;5048037;28;20680;-88
2021/01/27 06:46:03;;;;;;;0.17;0.17;;;2.80;95.90;;;;;;5049267;28;20047;-88
2021/01/27 06:48:56;;;;;;;0.20;0.20;;;2.80;76.10;;;;;;5048347;28;20025;-89
2021/01/27 06:51:32;;;;;;;0.10;0.10;;;2.70;85.90;;;;;;5048897;28;20071;-89
2021/01/27 06:54:07;;;;;;;0.10;0.10;;;2.60;1.00;;;;;;5034265;28;20025;-90
2021/01/27 06:57:10;;;;;;;0.10;0.10;;;2.60;1.00;;;;;;5036849;28;20025;-89
2021/01/27 06:59:57;;;;;;;0.30;0.30;;;2.50;1.00;;;;;;5037644;28;20021;-90
2021/01/27 07:03:04;;;;;;;0.10;0.10;;;2.60;39.40;;;;;;5048644;28;20048;-90
2021/01/27 07:05:48;;;;;;;0.10;0.10;;;2.60;99.90;;;;;;5044589;28;20021;-90
2021/01/27 07:08:35;;;;;;;2.40;0.80;;;2.60;99.90;;;;;;5038436;28;20024;-90
2021/01/27 07:11:32;;;;;;;0.32;0.32;;;2.60;99.90;;;;;;5045725;28;20790;-91
2021/01/27 07:14:59;;;;;;;0.10;0.10;;;2.60;99.90;;;;;;5047157;28;20029;-91
2021/01/27 07:17:28;;;;;;;0.30;0.30;;;2.70;99.90;;;;;;4960175;28;20045;-90
2021/01/27 07:19:57;;;;;;;0.10;0.10;;;2.60;1.00;;;;;;4978685;28;20069;-91
2021/01/27 07:22:47;;;;;;;0.10;0.10;;;2.60;52.00;;;;;;4966748;28;20092;-90
2021/01/27 07:25:42;;;;;;;0.10;0.10;;;2.60;69.90;;;;;;4970387;28;20030;-90
2021/01/27 07:28:25;;;;;;;1.05;0.95;;;2.70;94.40;;;;;;4985489;28;20045;-90
2021/01/27 07:31:11;;;;;;;0.65;0.47;;;2.70;86.80;;;;;;4967032;28;20094;-90
2021/01/27 07:34:06;;;;;;;0.10;0.10;;;2.80;98.30;;;;;;4976224;28;20044;-90
2021/01/27 07:36:45;;;;;;;1.02;0.60;;;2.80;45.30;;;;;;4986987;28;20566;-91
2021/01/27 07:39:24;;;;;;;0.30;0.30;;;2.90;25.40;;;;;;4969023;28;20030;-90
2021/01/27 07:42:08;;;;;;;1.17;0.52;;;3.00;1.00;;;;;;4962893;28;20027;-91
2021/01/27 07:44:36;;;;;;;0.15;0.15;;;2.90;99.90;;;;;;4974408;28;20039;-90
2021/01/27 07:47:19;;;;;;;0.15;0.15;;;2.80;99.90;;;;;;4974438;28;20050;-90
2021/01/27 07:49:54;;;;;;;0.17;0.17;;;2.90;99.90;;;;;;4986820;28;20038;-91
2021/01/27 07:52:32;;;;;;;0.20;0.20;;;3.00;99.90;;;;;;4975399;28;20169;-90
2021/01/27 07:55:35;;;;;;;0.00;0.00;;;3.00;93.70;;;;;;5044440;28;20044;-90
2021/01/27 07:58:11;;;;;;;0.10;0.10;;;3.00;1.00;;;;;;5048575;28;20029;-91
2021/01/27 08:00:58;;;;;;;0.10;0.10;;;3.10;99.90;;;;;;5048178;28;20055;-91
2021/01/27 08:03:40;;;;;;;0.10;0.10;;;3.20;99.90;;;;;;5048605;28;20074;-90
2021/01/27 08:06:10;;;;;;;0.00;0.00;;;3.20;99.90;;;;;;5051419;28;20401;-91
2021/01/27 08:09:03;;;;;;;0.17;0.17;;;3.30;99.90;;;;;;5050814;28;20483;-91
2021/01/27 08:11:42;;;;;;;0.10;0.10;;;3.40;99.90;;;;;;5051256;28;20037;-91
2021/01/27 08:14:10;;;;;;;0.10;0.10;;;3.30;99.90;;;;;;5052344;28;20906;-92
2021/01/27 08:16:41;;;;;;;0.20;0.20;;;3.30;99.90;;;;;;5051960;28;20025;-91
2021/01/27 08:19:12;;;;;;;0.17;0.17;;;3.30;1.00;;;;;;5056853;28;20060;-91
2021/01/27 08:21:47;;;;;;;0.10;0.10;;;3.40;99.90;;;;;;5072258;28;20032;-89
2021/01/27 08:24:37;;;;;;;0.20;0.20;;;3.30;99.90;;;;;;5072027;28;20071;-90
2021/01/27 08:27:17;;;;;;;0.38;0.38;;;3.20;99.90;;;;;;5072448;28;20028;-89
2021/01/27 08:30:04;;;;;;;0.10;0.10;;;3.20;99.90;;;;;;5053883;28;20024;-89
2021/01/27 08:32:40;;;;;;;0.10;0.10;;;3.30;99.90;;;;;;5071560;28;20818;-90
2021/01/27 08:35:32;;;;;;;0.10;0.10;;;3.40;1.00;;;;;;5058444;28;20071;-90
2021/01/27 08:38:22;;;;;;;0.10;0.10;;;3.20;99.90;;;;;;5065546;28;20033;-91
2021/01/27 08:40:48;;;;;;;0.73;0.55;;;3.30;99.90;;;;;;5070694;28;20023;-90
2021/01/27 08:43:15;;;;;;;0.10;0.10;;;3.30;99.90;;;;;;5072080;28;20485;-90
2021/01/27 08:45:45;;;;;;;0.00;0.00;;;3.40;99.90;;;;;;5053834;28;20040;-91
2021/01/27 08:48:14;;;;;;;0.10;0.10;;;3.30;99.90;;;;;;5071059;28;20039;-90
2021/01/27 08:50:54;;;;;;;0.10;0.10;;;3.30;99.90;;;;;;5053938;28;20059;-90
2021/01/27 08:53:27;;;;;;;0.10;0.10;;;3.50;80.10;;;;;;5071236;28;20107;-90
2021/01/27 08:56:00;;;;;;;0.57;0.57;;;3.50;70.00;;;;;;5065727;28;20499;-90
2021/01/27 08:58:35;;;;;;;0.10;0.10;;;3.70;75.70;;;;;;5064390;28;20046;-90
2021/01/27 09:01:29;;;;;;;0.10;0.10;;;3.90;53.90;;;;;;5047552;28;20029;-89
2021/01/27 09:03:55;;;;;;;0.10;0.10;;;3.90;1.00;;;;;;5064678;28;20031;-91
2021/01/27 09:06:28;;;;;;;0.00;0.00;;;3.90;1.00;;;;;;5053048;28;20024;-91
2021/01/27 09:09:07;;;;;;;0.22;0.22;;;3.80;1.00;;;;;;5053090;28;20089;-90
2021/01/27 09:11:34;;;;;;;0.20;0.20;;;3.80;1.00;;;;;;5053186;28;20569;-91
2021/01/27 09:14:08;;;;;;;0.00;0.00;;;3.70;1.00;;;;;;5053148;28;20059;-90
2021/01/27 09:16:37;;;;;;;0.40;0.40;;;3.70;99.90;;;;;;5053113;28;20105;-90
2021/01/27 09:19:09;;;;;;;0.10;0.10;;;4.00;72.20;;;;;;5070239;28;20161;-90
2021/01/27 09:21:35;;;;;;;0.15;0.15;;;4.00;20.60;;;;;;5052053;28;20042;-89
2021/01/27 09:24:22;;;;;;;0.10;0.10;;;3.90;1.00;;;;;;5070457;28;20055;-91
2021/01/27 09:26:50;;;;;;;0.00;0.00;;;3.90;1.00;;;;;;5041644;28;20033;-89
2021/01/27 09:29:21;;;;;;;0.10;0.10;;;3.70;1.00;;;;;;5070734;28;20024;-88
2021/01/27 09:31:48;;;;;;;0.10;0.10;;;4.00;1.00;;;;;;5071268;28;20028;-89
2021/01/27 09:34:16;;;;;;;0.10;0.10;;;4.30;1.00;;;;;;5052814;28;20162;-89
2021/01/27 09:36:44;;;;;;;0.65;0.63;;;4.30;1.00;;;;;;5070923;28;20083;-89
2021/01/27 09:39:11;;;;;;;0.15;0.15;;;4.50;1.00;;;;;;5070791;28;20115;-89
2021/01/27 09:41:42;;;;;;;0.03;0.03;;;4.70;1.00;;;;;;5071105;28;20489;-89
2021/01/27 09:44:23;;;;;;;0.10;0.10;;;4.80;1.00;;;;;;5070673;28;20120;-89
2021/01/27 09:46:49;;;;;;;0.10;0.10;;;4.90;1.00;;;;;;5052454;28;20039;-88
2021/01/27 09:49:16;;;;;;;0.10;0.10;;;5.10;45.70;;;;;;5070786;28;20445;-90
2021/01/27 09:51:53;;;;;;;0.10;0.10;;;5.30;1.00;;;;;;5052857;28;20020;-90
2021/01/27 09:54:20;;;;;;;0.10;0.10;;;5.20;1.00;;;;;;5055299;28;20032;-89
2021/01/27 09:56:51;;;;;;;0.10;0.10;;;5.00;25.60;;;;;;5057579;28;20025;-90
2021/01/27 09:59:19;;;;;;;0.10;0.10;;;4.80;1.00;;;;;;5053820;28;20024;-90
2021/01/27 10:01:48;;;;;;;0.00;0.00;;;4.90;1.00;;;;;;5052371;28;20115;-89
2021/01/27 10:04:17;;;;;;;0.10;0.10;;;4.90;1.00;;;;;;5052508;28;20038;-90
2021/01/27 10:07:08;;;;;;;0.30;0.30;;;4.70;1.00;;;;;;5052133;28;20031;-89
2021/01/27 10:09:59;;;;;;;0.20;0.20;;;4.80;1.00;;;;;;5043889;28;20024;-89
2021/01/27 10:12:31;;;;;;;0.70;0.17;;;4.70;1.00;;;;;;5070234;28;20039;-90
2021/01/27 10:15:02;;;;;;;0.43;0.43;;;4.50;3.30;;;;;;5053082;28;20469;-91
2021/01/27 10:17:30;;;;;;;0.00;0.00;;;4.70;1.00;;;;;;5069655;28;20047;-91
2021/01/27 10:20:07;;;;;;;0.05;0.05;;;5.00;9.50;;;;;;5069426;28;20044;-91
2021/01/27 10:22:38;;;;;;;0.10;0.10;;;5.40;57.20;;;;;;5047375;28;20281;-91
2021/01/27 10:25:28;;;;;;;0.10;0.10;;;5.70;1.00;;;;;;5051623;28;20387;-90
2021/01/27 10:28:06;;;;;;;0.10;0.10;;;5.90;1.00;;;;;;5063879;28;20115;-90
2021/01/27 10:30:46;;;;;;;0.17;0.17;;;5.90;1.00;;;;;;5059120;28;20092;-91
2021/01/27 10:33:51;;;;;;;0.45;0.45;;;5.80;1.00;;;;;;5051114;28;20029;-90
2021/01/27 10:36:41;;;;;;;0.10;0.10;;;5.50;99.90;;;;;;5070071;28;20790;-90
2021/01/27 10:39:29;;;;;;;0.10;0.10;;;5.30;1.00;;;;;;5070423;28;20040;-91
2021/01/27 10:42:07;;;;;;;0.35;0.35;;;5.30;1.00;;;;;;5050778;28;20507;-90
2021/01/27 10:44:39;;;;;;;0.43;0.43;;;5.10;1.00;;;;;;5052341;28;20032;-90
2021/01/27 10:47:07;;;;;;;0.00;0.00;;;5.30;1.00;;;;;;5057610;28;20028;-89
2021/01/27 10:49:37;;;;;;;0.10;0.10;;;5.50;1.00;;;;;;5070286;28;20108;-89
2021/01/27 10:52:08;;;;;;;0.55;0.55;;;5.40;1.00;;;;;;5045667;28;20409;-89
2021/01/27 10:54:34;;;;;;;0.20;0.20;;;5.70;99.90;;;;;;5063311;28;20028;-89
2021/01/27 10:57:00;;;;;;;0.10;0.10;;;5.90;99.90;;;;;;5051683;28;20957;-90
2021/01/27 10:59:26;;;;;;;0.20;0.20;;;6.50;99.90;;;;;;5069884;28;20013;-89
2021/01/27 11:01:52;;;;;;;0.15;0.15;;;6.30;99.90;;;;;;5051867;28;20391;-90
2021/01/27 11:04:18;;;;;;;1.92;0.25;;;6.10;99.90;;;;;;5055204;28;20031;-90
2021/01/27 11:06:45;;;;;;;0.15;0.15;;;6.40;99.90;;;;;;5041012;28;20056;-90
2021/01/27 11:09:12;;;;;;;0.00;0.00;;;6.10;99.90;;;;;;5034147;28;20146;-90
2021/01/27 11:11:38;;;;;;;0.10;0.10;;;6.00;99.90;;;;;;5069326;28;20017;-90
2021/01/27 11:14:05;;;;;;;0.00;0.00;;;5.90;99.90;;;;;;5069196;28;20033;-91
2021/01/27 11:16:31;;;;;;;0.20;0.20;;;6.20;99.90;;;;;;5069127;28;20565;-91
2021/01/27 11:18:57;;;;;;;1.50;1.30;;;6.60;99.90;;;;;;5056262;28;20148;-92
2021/01/27 11:21:24;;;;;;;0.10;0.10;;;6.90;99.90;;;;;;5067354;28;20094;-91
2021/01/27 11:23:50;;;;;;;0.10;0.10;;;7.00;99.90;;;;;;5051018;28;20585;-91
2021/01/27 11:26:20;;;;;;;0.45;0.45;;;7.40;99.90;;;;;;5051064;28;20155;-91
2021/01/27 11:28:48;;;;;;;0.80;0.80;;;7.20;99.90;;;;;;5068599;28;20023;-91
2021/01/27 11:31:15;;;;;;;0.10;0.10;;;6.80;99.90;;;;;;5050770;28;20474;-91
2021/01/27 11:33:41;;;;;;;0.22;0.22;;;6.70;99.90;;;;;;5054845;28;20027;-90
2021/01/27 11:36:06;;;;;;;0.00;0.00;;;6.90;99.90;;;;;;5073500;28;20032;-91
2021/01/27 11:38:32;;;;;;;0.10;0.10;;;6.60;99.90;;;;;;5054563;28;20082;-87
2021/01/27 11:40:58;;;;;;;0.10;0.10;;;7.10;99.90;;;;;;5068708;28;20024;-88
2021/01/27 11:43:24;;;;;;;0.00;0.00;;;7.30;99.90;;;;;;5068645;28;20020;-88
2021/01/27 11:45:50;;;;;;;0.15;0.15;;;7.40;99.90;;;;;;5068240;28;20055;-92
2021/01/27 11:48:16;;;;;;;0.20;0.20;;;7.20;99.90;;;;;;5051451;28;20529;-91
2021/01/27 11:50:41;;;;;;;0.10;0.10;;;7.00;99.90;;;;;;5050146;28;20047;-92
2021/01/27 11:53:08;;;;;;;10.00;1.55;;;6.80;99.90;;;;;;5044046;28;20131;-91
2021/01/27 11:55:34;;;;;;;0.10;0.10;;;7.00;99.90;;;;;;5057160;28;20039;-91
2021/01/27 11:58:01;;;;;;;0.10;0.10;;;6.90;1.00;;;;;;5038022;28;20032;-92
2021/01/27 12:00:29;;;;;;;0.10;0.10;;;7.10;99.90;;;;;;5042707;28;20057;-92
2021/01/27 12:02:57;;;;;;;0.13;0.13;;;7.20;99.90;;;;;;5048901;28;20036;-91
2021/01/27 12:05:24;;;;;;;0.17;0.17;;;7.20;99.90;;;;;;5043929;28;20037;-90
2021/01/27 12:07:51;;;;;;;0.05;0.05;;;6.60;99.90;;;;;;5045626;28;20017;-91
2021/01/27 12:10:20;;;;;;;0.05;0.05;;;6.70;99.90;;;;;;5035351;28;20064;-91
2021/01/27 12:12:46;;;;;;;0.20;0.20;;;6.60;99.90;;;;;;5066671;28;20032;-91
2021/01/27 12:15:14;;;;;;;0.10;0.10;;;6.70;99.90;;;;;;5034359;28;20029;-90
2021/01/27 12:17:43;;;;;;;0.10;0.10;;;6.50;99.90;;;;;;5057935;28;20024;-89
2021/01/27 12:20:11;;;;;;;0.10;0.10;;;6.40;99.90;;;;;;5040240;28;20048;-88
2021/01/27 12:22:37;;;;;;;0.10;0.10;;;6.30;1.00;;;;;;5039393;28;20492;-88
2021/01/27 12:25:03;;;;;;;1.42;0.80;;;6.10;1.00;;;;;;5058953;28;20048;-88
2021/01/27 12:27:30;;;;;;;0.00;0.00;;;6.20;1.00;;;;;;5059727;28;20940;-87
2021/01/27 12:29:56;;;;;;;0.00;0.00;;;6.10;34.80;;;;;;5044378;28;20596;-86
2021/01/27 12:32:25;;;;;;;0.10;0.10;;;6.10;99.90;;;;;;5038924;28;20039;-85
2021/01/27 12:34:52;;;;;;;0.10;0.10;;;6.20;99.90;;;;;;5051602;28;20394;-87
2021/01/27 12:37:18;;;;;;;0.20;0.20;;;6.40;99.90;;;;;;5048612;28;20028;-86
2021/01/27 12:39:46;;;;;;;0.10;0.10;;;6.50;99.90;;;;;;5061246;28;20029;-87
2021/01/27 12:42:12;;;;;;;0.45;0.22;;;6.70;99.90;;;;;;5040104;28;20107;-87
2021/01/27 12:44:40;;;;;;;0.10;0.10;;;6.90;90.50;;;;;;5065082;28;20131;-87
2021/01/27 12:47:06;;;;;;;0.10;0.10;;;7.30;2.60;;;;;;5067214;28;20040;-87
2021/01/27 12:49:33;;;;;;;0.00;0.00;;;7.30;1.00;;;;;;5059144;28;20604;-87
2021/01/27 12:52:00;;;;;;;0.00;0.00;;;7.30;99.90;;;;;;5056263;28;20120;-87
2021/01/27 12:54:26;;;;;;;0.10;0.10;;;7.40;1.00;;;;;;5060381;28;20027;-86
2021/01/27 12:56:53;;;;;;;0.45;0.45;;;7.20;99.90;;;;;;5057883;28;20025;-86
2021/01/27 12:59:19;;;;;;;0.10;0.10;;;7.10;99.90;;;;;;5063259;28;20017;-87
2021/01/27 13:01:46;;;;;;;0.10;0.10;;;7.00;99.90;;;;;;5058945;28;20083;-87
2021/01/27 13:04:12;;;;;;;0.10;0.10;;;7.30;99.90;;;;;;5065734;28;20103;-87
2021/01/27 13:06:38;;;;;;;0.10;0.10;;;7.30;99.90;;;;;;5067141;28;20028;-87
2021/01/27 13:09:03;;;;;;;0.20;0.20;;;7.70;99.90;;;;;;5071516;28;20043;-87
2021/01/27 13:11:29;;;;;;;0.10;0.10;;;7.90;99.90;;;;;;5073765;28;20036;-87
2021/01/27 13:13:55;;;;;;;0.10;0.10;;;8.20;99.90;;;;;;5070550;28;20040;-87
2021/01/27 13:16:21;;;;;;;0.28;0.28;;;8.00;99.90;;;;;;5060622;28;20052;-87
2021/01/27 13:18:48;;;;;;;0.10;0.10;;;7.80;99.90;;;;;;5045712;28;20094;-86
2021/01/27 13:21:13;;;;;;;0.20;0.20;;;7.60;99.90;;;;;;5069736;28;20559;-87
2021/01/27 13:23:39;;;;;;;0.08;0.08;;;7.20;99.90;;;;;;5052079;28;20036;-87
2021/01/27 13:26:05;;;;;;;0.10;0.10;;;7.30;99.90;;;;;;5058912;28;20028;-87
2021/01/27 13:28:31;;;;;;;0.10;0.10;;;7.40;99.90;;;;;;5060507;28;20497;-87
2021/01/27 13:30:57;;;;;;;0.10;0.10;;;7.30;99.90;;;;;;5074928;28;20028;-87
2021/01/27 13:33:28;;;;;;;0.20;0.20;;;7.60;99.90;;;;;;5047690;28;20842;-87